MONTHLY CLIMATOLOGICAL SUMMARY for MAY. 2017

NAME: Alresford Weather   CITY:  STATE: 
ELEV: 0 LAT: 050:05:15 LONG: 0001:10:11

                            TEMPERATURE ( C), RAIN (mm), WIND SPEED (mph)

                                               HEAT     COOL           AVG
      MEAN                                     DEG      DEG            WIND                       DOM
DAY   TEMP    HIGH   TIME     LOW    TIME      DAYS     DAYS    RAIN   SPEED    HIGH    TIME      DIR
----------------------------------------------------------------------------------------------------------------------------------------------------------
01   -00.5   -00.5   00:00   -00.5   00:00     18.8     00.0   00.02   00.7     11.5    23:05      E 
02   -00.5   -00.5   00:00   -00.5   00:00     18.8     00.0   00.00   00.5     11.5    22:58     ENE
03   -00.5   -00.5   00:00   -00.5   00:00     18.8     00.0   00.00   01.6     18.4    13:46      N 
04   -00.5   -00.5   00:00   -00.5   00:00     18.8     00.0   00.00   01.7     14.9    17:18     NNE
05   -00.5   -00.5   00:00   -00.5   00:00     18.8     00.0   00.00   02.3     20.7    15:39      NE
06   -00.5   -00.5   00:00   -00.5   00:00     18.8     00.0   00.00   01.5     16.1    09:19     NNE
07   -00.5   -00.5   00:00   -00.5   00:00     18.8     00.0   00.00   00.9     12.7    14:19     NNW
08   -00.5   -00.5   00:00   -00.5   00:00     18.8     00.0   00.00   01.1     14.9    13:40      N 
09   -00.5   -00.5   00:00   -00.5   00:00     18.8     00.0   00.00   00.4     11.5    13:04     NNE
10   -00.5   -00.5   00:00   -00.5   00:00     18.8     00.0   00.00   00.8     11.5    16:43     ESE
11   -00.5   -00.5   00:00   -00.5   00:00     18.8     00.0   00.05   01.5     14.9    19:42     ESE
12   -00.5   -00.5   00:00   -00.5   00:00     18.8     00.0   00.27   01.9     19.6    16:53      S 
13   -00.5   -00.5   00:00   -00.5   00:00     18.8     00.0   00.08   02.9     19.6    14:32     SSW
14   -00.5   -00.5   00:00   -00.5   00:00     18.8     00.0   00.12   02.9     18.4    17:00      SW
15   -00.5   -00.5   00:00   -00.5   00:00     18.8     00.0   00.16   02.5     18.4    10:28      S 
16   -00.5   -00.5   00:00   -00.5   00:00     18.8     00.0   00.10   01.7     19.6    10:36     SSW
17   -00.5   -00.5   00:00   -00.5   00:00     18.8     00.0   00.92   00.3     09.2    22:16      S 
18   -00.5   -00.5   00:00   -00.5   00:00     18.8     00.0   00.21   00.4     08.1    11:17      W 
19   -00.5   -00.5   00:00   -00.5   00:00     18.8     00.0   00.58   01.0     11.5    17:40     WSW
20   -00.5   -00.5   00:00   -00.5   00:00     18.8     00.0   00.06   02.0     20.7    16:57     SSW
21   -00.5   -00.5   00:00   -00.5   00:00     18.8     00.0   00.00   02.0     18.4    15:39     SSE
22   -00.5   -00.5   00:00   -00.5   00:00     18.8     00.0   00.00   01.9     16.1    15:15     SSE
23   -00.5   -00.5   00:00   -00.5   00:00     18.8     00.0   00.00   01.1     11.5    01:14      W 
24   -00.5   -00.5   00:00   -00.5   00:00     18.8     00.0   00.00   00.2     08.1    19:40      W 
25   -00.5   -00.5   00:00   -00.5   00:00     18.8     00.0   00.00   01.1     11.5    16:04      SE
26   -00.5   -00.5   00:00   -00.5   00:00     18.8     00.0   00.00   02.7     20.7    16:37     ESE
27   -00.5   -00.5   00:00   -00.5   00:00     18.8     00.0   00.05   01.9     19.6    14:13     SSW
28   -00.5   -00.5   00:00   -00.5   00:00     18.8     00.0   00.02   00.1     10.3    16:26     SSE
29   -00.5   -00.5   00:00   -00.5   00:00     18.8     00.0   00.43   00.3     10.3    14:52     SSE
30   -00.5   -00.5   00:00   -00.5   00:00     18.8     00.0   00.00   02.0     14.9    16:18      SW
31   -00.5   -00.5   00:00   -00.5   00:00     18.8     00.0   00.00   00.6     12.7    16:09      SW
----------------------------------------------------------------------------------------------------------------------------------------------------------
-0.5 (-0.5)  -00.5  day 31    -00.5  day 31   583.7    000.0   03.07   01.4     20.7   day 13      S 
Max <=   0: 31
Min <=   30: 31
Max Rain: 0.92 ON 17-05-17
Days of Rain: 14 (> .008in) 8 (> .08in) 1 (> 0.8in)